This is the latest recevied weather packets stored in our database for station/object IR9AK-10. If no packets are shown the sender has not sent any weather packets the latest 10 day(s).
| Time | Temp. | Humidity | Pressure | Rain* | Wind** | Luminosity | Snow |
|---|---|---|---|---|---|---|---|
| 1777620190 | 20° C | 66% | 1063.2 hPa | - | - | - | - |
| 1777619591 | 20° C | 68% | 1063 hPa | - | - | - | - |
| 1777618992 | 19.44° C | 70% | 1062.9 hPa | - | - | - | - |
| 1777618405 | 18.89° C | 72% | 1063 hPa | - | - | - | - |
| 1777618405 | 18.89° C | 72% | 1063 hPa | - | - | - | - |
| 1777618393 | 18.89° C | 72% | 1063 hPa | - | - | - | - |
| 1777617795 | 18.89° C | 74% | 1062.9 hPa | - | - | - | - |
| 1777617196 | 18.33° C | 76% | 1062.7 hPa | - | - | - | - |
| 1777616597 | 17.78° C | 77% | 1062.7 hPa | - | - | - | - |
| 1777615998 | 17.78° C | 78% | 1062.5 hPa | - | - | - | - |
| 1777615399 | 17.22° C | 79% | 1062.5 hPa | - | - | - | - |
| 1777614800 | 17.22° C | 79% | 1062.5 hPa | - | - | - | - |
| 1777614200 | 17.22° C | 78% | 1062.3 hPa | - | - | - | - |
| 1777602880 | 18.33° C | 64% | 1061.7 hPa | - | - | - | - |
| 1777602282 | 17.78° C | 65% | 1061.6 hPa | - | - | - | - |
| 1777601682 | 17.22° C | 67% | 1061.6 hPa | - | - | - | - |
| 1777598492 | 18.33° C | 68% | 1061.5 hPa | - | - | - | - |
| 1777597893 | 17.78° C | 67% | 1061.5 hPa | - | - | - | - |
| 1777597293 | 17.78° C | 67% | 1061.6 hPa | - | - | - | - |
| 1777596694 | 17.78° C | 68% | 1061.5 hPa | - | - | - | - |
| 1777596095 | 17.78° C | 69% | 1061.6 hPa | - | - | - | - |
| 1777595495 | 17.78° C | 72% | 1061.7 hPa | - | - | - | - |
| 1777589592 | 18.89° C | 70% | - | - | - | - | - |
| 1777588993 | 18.89° C | 70% | 1061.8 hPa | - | - | - | - |
| 1777588395 | 19.44° C | 72% | 1061.9 hPa | - | - | - | - |
* Rain since midnight (hover to see other rain measurements)
** Current wind speed in m/s (hover to see current wind gust speed)